createdAt,value
2018-12-15T00:00:26.903Z,99.90
2018-12-15T00:03:05.075Z,99.90
2018-12-15T00:05:39.930Z,99.90
2018-12-15T00:08:14.797Z,99.90
2018-12-15T00:10:48.818Z,99.90
2018-12-15T00:13:23.172Z,99.90
2018-12-15T00:15:57.991Z,99.90
2018-12-15T00:18:32.204Z,99.90
2018-12-15T00:21:06.151Z,99.90
2018-12-15T00:23:40.212Z,99.90
2018-12-15T00:26:15.025Z,99.90
2018-12-15T00:28:52.938Z,99.90
2018-12-15T00:31:27.287Z,99.90
2018-12-15T00:34:02.765Z,99.90
2018-12-15T00:36:37.761Z,99.90
2018-12-15T00:39:12.580Z,99.90
2018-12-15T00:41:46.579Z,99.90
2018-12-15T00:44:20.771Z,99.90
2018-12-15T00:46:54.893Z,99.90
2018-12-15T00:49:29.970Z,99.90
2018-12-15T00:52:03.965Z,99.90
2018-12-15T00:54:37.992Z,99.90
2018-12-15T00:57:15.983Z,99.90
2018-12-15T00:59:50.015Z,99.90
2018-12-15T01:02:29.228Z,99.90
2018-12-15T01:05:03.544Z,99.90
2018-12-15T01:07:37.627Z,99.90
2018-12-15T01:10:15.734Z,99.90
2018-12-15T01:12:49.763Z,99.90
2018-12-15T01:15:33.231Z,99.90
2018-12-15T01:18:07.331Z,99.90
2018-12-15T01:20:41.447Z,99.90
2018-12-15T01:23:19.514Z,99.90
2018-12-15T01:25:53.663Z,99.90
2018-12-15T01:28:28.076Z,99.90
2018-12-15T01:31:02.308Z,99.90
2018-12-15T01:33:36.296Z,99.90
2018-12-15T01:36:10.588Z,99.90
2018-12-15T01:38:44.600Z,99.90
2018-12-15T01:41:18.884Z,99.90
2018-12-15T01:43:53.106Z,99.90
2018-12-15T01:46:27.318Z,99.90
2018-12-15T01:49:01.271Z,99.90
2018-12-15T01:51:35.629Z,99.90
2018-12-15T01:54:09.736Z,99.90
2018-12-15T01:56:43.880Z,99.90
2018-12-15T01:59:17.829Z,99.90
2018-12-15T02:42:35.704Z,99.90
2018-12-15T02:45:14.648Z,99.90
2018-12-15T02:47:49.163Z,99.90
2018-12-15T02:50:27.928Z,99.90
2018-12-15T02:53:01.903Z,99.90
2018-12-15T02:55:35.768Z,99.90
2018-12-15T02:58:09.967Z,99.90
2018-12-15T03:00:43.939Z,99.90
2018-12-15T03:03:22.682Z,99.90
2018-12-15T03:05:57.431Z,99.90
2018-12-15T03:08:31.389Z,99.90
2018-12-15T03:11:05.438Z,99.90
2018-12-15T03:13:39.718Z,99.90
2018-12-15T03:16:13.682Z,99.90
2018-12-15T03:18:47.883Z,99.90
2018-12-15T03:21:21.952Z,99.90
2018-12-15T03:23:56.242Z,99.90
2018-12-15T03:26:30.459Z,99.90
2018-12-15T03:29:04.541Z,99.90
2018-12-15T03:31:38.730Z,99.90
2018-12-15T03:34:12.880Z,99.90
2018-12-15T03:36:46.885Z,99.90
2018-12-15T03:39:21.242Z,99.90
2018-12-15T03:41:56.253Z,99.90
2018-12-15T04:02:23.748Z,99.90
2018-12-15T04:04:58.030Z,99.90
2018-12-15T04:07:32.680Z,99.90
2018-12-15T04:10:07.043Z,99.90
2018-12-15T04:12:45.019Z,99.90
2018-12-15T04:15:18.915Z,99.90
2018-12-15T04:17:53.361Z,99.90
2018-12-15T04:20:31.264Z,99.90
2018-12-15T04:23:05.439Z,99.90
2018-12-15T04:25:39.656Z,99.90
2018-12-15T04:28:17.990Z,99.90
2018-12-15T04:30:52.112Z,99.90
2018-12-15T04:33:25.977Z,99.90
2018-12-15T04:36:07.209Z,99.90
2018-12-15T04:38:41.551Z,99.90
2018-12-15T04:41:15.638Z,99.90
2018-12-15T04:43:50.671Z,99.90
2018-12-15T04:46:25.815Z,99.90
2018-12-15T04:49:00.152Z,99.90
2018-12-15T04:51:38.510Z,99.90
2018-12-15T04:54:16.648Z,99.90
2018-12-15T04:56:50.584Z,99.90
2018-12-15T04:59:24.800Z,99.90
2018-12-15T05:01:58.995Z,99.90
2018-12-15T05:07:05.956Z,99.90
2018-12-15T05:09:40.132Z,99.90
2018-12-15T05:12:14.033Z,99.90
2018-12-15T05:14:48.303Z,99.90
2018-12-15T05:17:29.325Z,99.90
2018-12-15T05:20:04.432Z,99.90
2018-12-15T05:22:39.239Z,99.90
2018-12-15T05:25:13.447Z,99.90
2018-12-15T05:27:47.541Z,99.90
2018-12-15T05:30:21.411Z,99.90
2018-12-15T05:32:55.347Z,99.90
2018-12-15T05:35:29.935Z,99.90
2018-12-15T05:38:04.601Z,99.90
2018-12-15T05:40:38.617Z,99.90
2018-12-15T05:43:13.545Z,99.90
2018-12-15T05:45:48.360Z,99.90
2018-12-15T05:48:25.360Z,99.90
2018-12-15T05:50:59.783Z,99.90
2018-12-15T05:53:34.080Z,99.90
2018-12-15T05:56:12.203Z,99.90
2018-12-15T05:58:46.503Z,99.90
2018-12-15T06:01:20.303Z,99.90
2018-12-15T06:03:54.458Z,99.90
2018-12-15T06:14:07.012Z,99.90
2018-12-15T06:16:41.926Z,99.90
2018-12-15T06:19:16.740Z,99.90
2018-12-15T06:21:50.876Z,99.90
2018-12-15T06:24:24.909Z,99.90
2018-12-15T06:26:59.059Z,99.90
2018-12-15T06:29:33.180Z,99.90
2018-12-15T06:32:07.382Z,99.90
2018-12-15T06:34:41.415Z,99.90
2018-12-15T06:37:15.575Z,99.90
2018-12-15T06:39:49.676Z,99.90
2018-12-15T06:42:23.774Z,99.90
2018-12-15T06:44:58.303Z,99.90
2018-12-15T06:47:32.341Z,99.90
2018-12-15T06:50:11.067Z,99.90
2018-12-15T06:52:45.929Z,99.90
2018-12-15T06:55:19.914Z,99.90
2018-12-15T06:57:54.004Z,99.90
2018-12-15T07:00:28.197Z,99.90
2018-12-15T07:03:02.347Z,99.90
2018-12-15T07:05:36.425Z,99.90
2018-12-15T07:08:10.668Z,99.90
2018-12-15T07:10:45.363Z,99.90
2018-12-15T07:13:19.392Z,99.90
2018-12-15T07:15:53.899Z,99.90
2018-12-15T07:18:28.619Z,99.90
2018-12-15T07:21:06.899Z,99.90
2018-12-15T07:23:44.973Z,99.90
2018-12-15T07:26:19.013Z,99.90
2018-12-15T07:28:57.019Z,99.90
2018-12-15T07:31:31.039Z,99.90
2018-12-15T07:34:05.224Z,99.90
2018-12-15T07:36:39.809Z,99.90
2018-12-15T07:39:14.431Z,99.90
2018-12-15T07:41:48.946Z,99.90
2018-12-15T07:44:22.822Z,99.90
2018-12-15T07:46:57.092Z,99.90
2018-12-15T07:49:32.028Z,99.90
2018-12-15T07:52:06.318Z,99.90
2018-12-15T07:54:40.465Z,99.90
2018-12-15T07:57:15.380Z,99.90
2018-12-15T07:59:49.438Z,99.90
2018-12-15T08:02:23.501Z,99.90
2018-12-15T08:04:57.671Z,99.90
2018-12-15T08:07:31.777Z,99.90
2018-12-15T08:10:07.545Z,99.90
2018-12-15T08:12:43.534Z,99.90
2018-12-15T08:15:18.463Z,99.90
2018-12-15T08:33:09.793Z,99.90
2018-12-15T08:35:44.739Z,99.90
2018-12-15T08:38:19.637Z,99.90
2018-12-15T08:40:53.875Z,99.90
2018-12-15T08:43:27.963Z,99.90
2018-12-15T08:46:09.088Z,99.90
2018-12-15T08:48:43.667Z,99.90
2018-12-15T08:51:18.606Z,99.90
2018-12-15T08:53:52.607Z,99.90
2018-12-15T08:56:26.641Z,99.90
2018-12-15T08:59:00.848Z,99.90
2018-12-15T09:01:34.650Z,99.90
2018-12-15T09:04:09.444Z,99.90
2018-12-15T09:06:43.732Z,99.90
2018-12-15T09:09:18.211Z,99.90
2018-12-15T09:11:52.405Z,99.90
2018-12-15T09:14:26.548Z,99.90
2018-12-15T09:17:00.675Z,99.90
2018-12-15T09:19:35.721Z,99.90
2018-12-15T09:22:11.597Z,99.90
2018-12-15T09:24:50.004Z,99.90
2018-12-15T09:27:27.869Z,99.90
2018-12-15T09:30:01.912Z,99.90
2018-12-15T09:32:40.231Z,99.90
2018-12-15T09:35:14.525Z,99.90
2018-12-15T09:37:48.480Z,99.90
2018-12-15T09:40:22.669Z,99.90
2018-12-15T09:43:00.981Z,99.90
2018-12-15T09:45:35.356Z,99.90
2018-12-15T09:48:13.579Z,99.90
2018-12-15T09:50:47.799Z,99.90
2018-12-15T09:53:21.879Z,99.90
2018-12-15T09:55:56.510Z,99.90
2018-12-15T09:58:31.155Z,99.90
2018-12-15T10:01:05.580Z,99.90
2018-12-15T10:03:39.539Z,99.90
2018-12-15T10:06:13.629Z,99.90
2018-12-15T10:08:47.629Z,99.90
2018-12-15T10:11:21.749Z,99.90
2018-12-15T10:14:00.550Z,99.90
2018-12-15T10:16:34.714Z,99.90
2018-12-15T10:19:09.827Z,99.90
2018-12-15T10:21:44.079Z,99.90
2018-12-15T10:24:18.034Z,99.90
2018-12-15T10:26:52.864Z,99.90
2018-12-15T10:29:31.932Z,99.90
2018-12-15T10:32:11.315Z,99.90
2018-12-15T10:34:45.637Z,99.90
2018-12-15T10:50:03.796Z,99.90
2018-12-15T10:52:37.785Z,99.90
2018-12-15T10:55:12.020Z,99.90
2018-12-15T10:57:47.178Z,99.90
2018-12-15T11:00:27.023Z,99.90
2018-12-15T11:03:01.405Z,99.90
2018-12-15T11:05:35.439Z,99.90
2018-12-15T11:08:09.407Z,99.90
2018-12-15T11:10:48.022Z,99.90
2018-12-15T11:13:22.251Z,99.90
2018-12-15T11:15:56.564Z,99.90
2018-12-15T11:18:30.711Z,99.90
2018-12-15T11:21:04.775Z,99.90
2018-12-15T11:23:39.576Z,99.90
2018-12-15T11:26:14.531Z,99.90
2018-12-15T11:28:48.742Z,99.90
2018-12-15T11:31:23.013Z,99.90
2018-12-15T11:33:57.323Z,99.90
2018-12-15T11:36:35.989Z,99.90
2018-12-15T11:39:10.116Z,99.90
2018-12-15T11:41:48.158Z,99.90
2018-12-15T11:44:22.092Z,99.90
2018-12-15T11:46:56.454Z,99.90
2018-12-15T11:49:34.884Z,99.90
2018-12-15T11:52:10.042Z,99.90
2018-12-15T11:54:48.166Z,99.90
2018-12-15T11:57:23.028Z,99.90
2018-12-15T11:59:56.938Z,99.90
2018-12-15T12:02:31.972Z,99.90
2018-12-15T12:05:06.875Z,99.90
2018-12-15T12:07:41.604Z,99.90
2018-12-15T12:10:15.608Z,99.90
2018-12-15T12:12:50.033Z,99.90
2018-12-15T12:15:24.329Z,99.90
2018-12-15T12:18:02.418Z,99.90
2018-12-15T12:20:36.732Z,99.90
2018-12-15T12:23:10.738Z,99.90
2018-12-15T12:25:44.835Z,99.90
2018-12-15T12:28:18.919Z,99.90
2018-12-15T12:30:52.971Z,99.90
2018-12-15T12:33:27.048Z,99.90
2018-12-15T12:36:00.955Z,99.90
2018-12-15T12:38:35.015Z,99.90
2018-12-15T12:41:09.153Z,99.90
2018-12-15T12:43:44.323Z,99.90
2018-12-15T12:46:18.329Z,99.90
2018-12-15T12:48:52.444Z,99.90
2018-12-15T12:51:30.736Z,99.90
2018-12-15T12:54:05.103Z,99.90
2018-12-15T12:56:39.957Z,99.90
2018-12-15T12:59:14.985Z,99.90
2018-12-15T13:01:49.220Z,99.90
2018-12-15T13:04:28.187Z,99.90
2018-12-15T13:07:02.305Z,99.90
2018-12-15T13:09:36.316Z,99.90
2018-12-15T13:12:10.425Z,99.90
2018-12-15T13:14:44.824Z,99.90
2018-12-15T13:17:18.725Z,99.90
2018-12-15T13:19:52.673Z,99.90
2018-12-15T13:22:26.999Z,99.90
2018-12-15T13:25:01.197Z,99.90
2018-12-15T13:27:35.331Z,99.90
2018-12-15T13:30:10.068Z,99.90
2018-12-15T13:32:44.446Z,99.90
2018-12-15T13:35:18.741Z,99.90
2018-12-15T13:37:58.603Z,99.90
2018-12-15T13:40:32.775Z,99.90
2018-12-15T13:43:07.688Z,99.90
2018-12-15T13:45:42.424Z,99.90
2018-12-15T13:48:16.699Z,99.90
2018-12-15T13:50:50.951Z,99.90
2018-12-15T13:53:24.859Z,99.90
2018-12-15T13:55:59.157Z,99.90
2018-12-15T13:58:33.144Z,99.90
2018-12-15T14:01:07.186Z,99.90
2018-12-15T14:03:45.616Z,99.90
2018-12-15T14:06:20.450Z,99.90
2018-12-15T14:08:54.563Z,99.90
2018-12-15T14:11:29.481Z,99.90
2018-12-15T14:14:04.070Z,99.90
2018-12-15T14:16:43.053Z,99.90
2018-12-15T14:19:18.084Z,99.90
2018-12-15T14:21:52.032Z,99.90
2018-12-15T14:24:25.888Z,99.90
2018-12-15T14:26:59.920Z,99.90
2018-12-15T14:29:33.941Z,99.90
2018-12-15T14:32:08.029Z,99.90
2018-12-15T14:34:43.369Z,99.90
2018-12-15T14:37:17.457Z,99.90
2018-12-15T14:39:52.291Z,99.90
2018-12-15T14:42:26.912Z,99.90
2018-12-15T14:45:05.009Z,99.90
2018-12-15T14:47:43.028Z,99.90
2018-12-15T14:50:23.226Z,99.90
2018-12-15T14:52:54.935Z,99.90
2018-12-15T14:55:28.985Z,99.90
2018-12-15T14:58:03.334Z,99.90
2018-12-15T15:03:10.350Z,99.90
2018-12-15T15:05:44.565Z,99.90
2018-12-15T15:08:18.711Z,99.90
2018-12-15T15:10:53.203Z,99.90
2018-12-15T15:13:34.324Z,99.90
2018-12-15T15:16:04.535Z,99.90
2018-12-15T15:18:38.621Z,99.90
2018-12-15T15:21:12.559Z,99.90
2018-12-15T15:23:47.806Z,99.90
2018-12-15T15:26:21.788Z,99.90
2018-12-15T15:28:55.924Z,99.90
2018-12-15T15:31:30.199Z,99.90
2018-12-15T15:34:04.303Z,99.90
2018-12-15T15:36:38.971Z,99.90
2018-12-15T15:39:13.876Z,99.90
2018-12-15T15:41:48.292Z,99.90
2018-12-15T15:44:22.242Z,99.70
2018-12-15T15:46:56.322Z,99.30
2018-12-15T15:49:31.153Z,99.30
2018-12-15T15:52:05.344Z,99.50
2018-12-15T15:54:39.717Z,99.60
2018-12-15T15:57:14.507Z,99.50
2018-12-15T15:59:49.206Z,99.90
2018-12-15T16:20:16.643Z,99.00
2018-12-15T16:22:50.635Z,99.40
2018-12-15T16:25:24.692Z,99.30
2018-12-15T16:27:59.076Z,99.30
2018-12-15T16:30:34.021Z,98.80
2018-12-15T16:33:08.287Z,98.20
2018-12-15T16:35:42.432Z,98.50
2018-12-15T16:38:16.439Z,98.50
2018-12-15T16:40:50.368Z,98.60
2018-12-15T16:43:24.368Z,98.30
2018-12-15T16:45:59.113Z,98.20
2018-12-15T16:48:33.665Z,97.90
2018-12-15T16:51:12.852Z,97.90
2018-12-15T16:53:47.542Z,97.80
2018-12-15T16:56:21.517Z,97.90
2018-12-15T16:58:55.433Z,97.70
2018-12-15T17:01:29.751Z,97.80
2018-12-15T17:04:04.680Z,97.90
2018-12-15T17:06:43.552Z,98.10
2018-12-15T17:09:17.703Z,97.80
2018-12-15T17:11:52.191Z,97.60
2018-12-15T17:14:26.912Z,97.70
2018-12-15T17:17:05.100Z,98.10
2018-12-15T17:19:39.345Z,98.00
2018-12-15T17:22:13.654Z,98.00
2018-12-15T17:24:47.870Z,98.20
2018-12-15T17:27:30.959Z,98.00
2018-12-15T17:30:06.517Z,98.20
2018-12-15T17:32:41.633Z,98.00
2018-12-15T17:35:16.453Z,98.20
2018-12-15T17:37:50.691Z,98.30
2018-12-15T17:40:24.778Z,99.90
2018-12-15T17:42:59.591Z,99.90
2018-12-15T17:45:34.374Z,98.40
2018-12-15T17:48:09.353Z,98.80
2018-12-15T17:50:43.966Z,99.00
2018-12-15T17:53:18.817Z,98.90
2018-12-15T17:55:53.113Z,99.00
2018-12-15T17:58:27.666Z,98.60
2018-12-15T18:01:01.842Z,98.70
2018-12-15T18:03:36.051Z,98.80
2018-12-15T18:06:10.065Z,98.70
2018-12-15T18:08:44.277Z,98.60
2018-12-15T18:11:18.791Z,98.60
2018-12-15T18:13:53.752Z,98.50
2018-12-15T18:16:31.822Z,98.50
2018-12-15T18:19:06.797Z,98.60
2018-12-15T18:21:45.224Z,98.90
2018-12-15T18:24:19.353Z,98.50
2018-12-15T18:26:54.147Z,98.80
2018-12-15T18:29:28.317Z,98.50
2018-12-15T18:32:07.176Z,99.00
2018-12-15T18:34:42.035Z,99.90
2018-12-15T18:37:17.074Z,99.90
2018-12-15T18:39:55.926Z,99.90
2018-12-15T18:42:30.921Z,99.90
2018-12-15T18:45:06.905Z,99.70
2018-12-15T18:47:40.983Z,99.60
2018-12-15T18:50:15.221Z,99.20
2018-12-15T18:52:50.042Z,99.50
2018-12-15T18:55:24.420Z,99.40
2018-12-15T18:57:58.666Z,99.00
2018-12-15T19:00:33.527Z,99.20
2018-12-15T19:03:09.636Z,99.00
2018-12-15T19:05:48.688Z,99.10
2018-12-15T19:08:23.429Z,99.20
2018-12-15T19:10:58.025Z,99.20
2018-12-15T19:13:33.157Z,99.80
2018-12-15T19:16:07.283Z,99.60
2018-12-15T19:18:41.767Z,99.90
2018-12-15T19:21:22.802Z,99.90
2018-12-15T19:23:53.030Z,99.90
2018-12-15T19:26:27.144Z,99.90
2018-12-15T19:29:01.263Z,99.90
2018-12-15T19:31:40.515Z,99.90
2018-12-15T19:34:17.625Z,99.70
2018-12-15T19:36:52.323Z,99.50
2018-12-15T19:39:27.076Z,99.60
2018-12-15T19:42:01.799Z,99.30
2018-12-15T19:44:37.545Z,99.40
2018-12-15T19:47:12.435Z,99.30
2018-12-15T19:49:47.155Z,99.50
2018-12-15T19:52:22.117Z,99.40
2018-12-15T19:54:56.438Z,99.40
2018-12-15T19:57:31.404Z,99.30
2018-12-15T20:00:07.133Z,99.20
2018-12-15T20:02:41.412Z,99.20
2018-12-15T20:05:16.251Z,99.50
2018-12-15T20:07:51.100Z,99.50
2018-12-15T20:10:25.247Z,99.50
2018-12-15T20:12:59.284Z,99.70
2018-12-15T20:15:34.209Z,99.70
2018-12-15T20:18:09.277Z,99.60
2018-12-15T20:20:44.108Z,99.70
2018-12-15T20:23:23.564Z,99.40
2018-12-15T20:25:57.566Z,99.40
2018-12-15T20:28:31.724Z,99.30
2018-12-15T20:38:45.221Z,99.70
2018-12-15T20:41:24.777Z,99.90
2018-12-15T20:43:59.022Z,99.70
2018-12-15T20:46:37.149Z,99.20
2018-12-15T20:49:13.758Z,99.10
2018-12-15T20:51:48.439Z,99.10
2018-12-15T20:54:23.505Z,99.20
2018-12-15T20:56:58.653Z,99.50
2018-12-15T20:59:33.386Z,99.50
2018-12-15T21:02:07.358Z,99.30
2018-12-15T21:04:41.627Z,99.20
2018-12-15T21:07:16.468Z,99.20
2018-12-15T21:09:50.726Z,99.10
2018-12-15T21:12:25.791Z,99.30
2018-12-15T21:15:05.339Z,99.40
2018-12-15T21:17:44.135Z,99.40
2018-12-15T21:20:18.532Z,99.20
2018-12-15T21:22:52.690Z,99.30
2018-12-15T21:25:31.008Z,99.20
2018-12-15T21:28:05.987Z,99.20
2018-12-15T21:30:40.063Z,99.40
2018-12-15T21:33:14.260Z,99.40
2018-12-15T21:35:52.504Z,99.40
2018-12-15T21:43:32.084Z,99.30
2018-12-15T21:46:06.348Z,99.40
2018-12-15T21:48:40.533Z,99.50
2018-12-15T21:51:19.588Z,99.20
2018-12-15T21:53:54.527Z,99.20
2018-12-15T21:56:28.467Z,99.90
2018-12-15T21:59:02.575Z,99.90
2018-12-15T22:01:36.863Z,99.90
2018-12-15T22:04:11.425Z,99.20
2018-12-15T22:06:46.150Z,98.90
2018-12-15T22:09:20.257Z,98.60
2018-12-15T22:11:55.234Z,98.80
2018-12-15T22:14:29.690Z,98.80
2018-12-15T22:17:04.647Z,98.80
2018-12-15T22:19:39.658Z,98.80
2018-12-15T22:22:14.791Z,98.80
2018-12-15T22:24:49.970Z,98.40
2018-12-15T22:27:25.225Z,98.50
2018-12-15T22:30:00.296Z,98.70
2018-12-15T22:32:34.374Z,98.60
2018-12-15T22:35:08.621Z,98.60
2018-12-15T22:37:42.790Z,98.60
2018-12-15T22:40:16.886Z,98.50
2018-12-15T22:42:50.970Z,99.60
2018-12-15T22:55:41.469Z,99.50
2018-12-15T22:58:20.269Z,99.20
2018-12-15T23:01:00.197Z,98.80
2018-12-15T23:03:34.343Z,98.50
2018-12-15T23:06:09.395Z,98.60
2018-12-15T23:08:44.379Z,98.40
2018-12-15T23:11:18.563Z,98.50
2018-12-15T23:13:53.117Z,98.60
2018-12-15T23:16:28.701Z,98.60
2018-12-15T23:19:03.255Z,98.30
2018-12-15T23:21:37.567Z,98.20
2018-12-15T23:24:16.848Z,98.20
2018-12-15T23:26:51.730Z,98.10
2018-12-15T23:29:26.597Z,98.10
2018-12-15T23:32:01.560Z,98.00
2018-12-15T23:34:36.483Z,98.10
2018-12-15T23:37:11.084Z,98.10
2018-12-15T23:39:45.901Z,98.10
2018-12-15T23:42:20.202Z,98.00
2018-12-15T23:44:54.549Z,98.10
2018-12-15T23:47:30.627Z,97.90
2018-12-15T23:50:05.887Z,97.70
2018-12-15T23:52:40.812Z,97.60
